< < Back
Terminal Aerodrome Forecast


Current Version              Previous Versions:   1  2  3  4  5  6  7  8  9  

Terminal Aerodrome Forecast

872
FTUS42 KILM 281720
TAFILM
TAF
KILM 281720Z 2818/2918 22012G18KT P6SM SCT060
     FM290100 22007KT P6SM SKC
     FM291200 25009KT P6SM SKC
     FM291600 25012G18KT P6SM SKC=



Latest METAR

811
SAUS70 KWBC 290300 RRM
MTRILM
METAR KILM 290253Z 22010KT 10SM CLR 28/24 A2992 RMK AO2 SLP132 T02830239
52012 PWINO


USA.gov is the U.S. government's official web portal to all federal, state and local government web resources and services.